sensor_id;sensor_type;location;lat;lon;timestamp;temperature;humidity
42743;DHT22;28397;44.552;-0.848;2023-10-13T00:01:31;17.40;99.90
42743;DHT22;28397;44.552;-0.848;2023-10-13T00:03:57;17.30;99.90
42743;DHT22;28397;44.552;-0.848;2023-10-13T00:06:23;17.30;99.90
42743;DHT22;28397;44.552;-0.848;2023-10-13T00:08:48;17.40;99.90
42743;DHT22;28397;44.552;-0.848;2023-10-13T00:11:15;17.30;99.90
42743;DHT22;28397;44.552;-0.848;2023-10-13T00:13:41;17.30;99.90
42743;DHT22;28397;44.552;-0.848;2023-10-13T00:16:20;17.30;99.90
42743;DHT22;28397;44.552;-0.848;2023-10-13T00:18:54;17.30;99.90
42743;DHT22;28397;44.552;-0.848;2023-10-13T00:21:25;17.20;99.90
42743;DHT22;28397;44.552;-0.848;2023-10-13T00:23:58;17.20;99.90
42743;DHT22;28397;44.552;-0.848;2023-10-13T00:26:28;17.10;99.90
42743;DHT22;28397;44.552;-0.848;2023-10-13T00:28:57;17.10;99.90
42743;DHT22;28397;44.552;-0.848;2023-10-13T00:31:32;17.00;99.90
42743;DHT22;28397;44.552;-0.848;2023-10-13T00:34:02;17.00;99.90
42743;DHT22;28397;44.552;-0.848;2023-10-13T00:36:45;17.20;99.90
42743;DHT22;28397;44.552;-0.848;2023-10-13T00:39:15;17.40;99.90
42743;DHT22;28397;44.552;-0.848;2023-10-13T00:41:43;17.60;99.90
42743;DHT22;28397;44.552;-0.848;2023-10-13T00:44:22;17.70;99.90
42743;DHT22;28397;44.552;-0.848;2023-10-13T00:47:04;17.80;99.90
42743;DHT22;28397;44.552;-0.848;2023-10-13T00:49:33;17.80;99.90
42743;DHT22;28397;44.552;-0.848;2023-10-13T00:52:04;17.90;99.90
42743;DHT22;28397;44.552;-0.848;2023-10-13T00:54:29;17.80;99.90
42743;DHT22;28397;44.552;-0.848;2023-10-13T00:56:55;17.80;99.90
42743;DHT22;28397;44.552;-0.848;2023-10-13T00:59:37;17.90;99.90
42743;DHT22;28397;44.552;-0.848;2023-10-13T01:02:03;17.90;99.90
42743;DHT22;28397;44.552;-0.848;2023-10-13T01:04:48;17.90;99.90
42743;DHT22;28397;44.552;-0.848;2023-10-13T01:07:14;17.90;99.90
42743;DHT22;28397;44.552;-0.848;2023-10-13T01:09:44;17.80;99.90
42743;DHT22;28397;44.552;-0.848;2023-10-13T01:12:12;17.70;99.90
42743;DHT22;28397;44.552;-0.848;2023-10-13T01:14:38;17.60;99.90
42743;DHT22;28397;44.552;-0.848;2023-10-13T01:17:04;17.50;99.90
42743;DHT22;28397;44.552;-0.848;2023-10-13T01:19:30;17.40;99.90
42743;DHT22;28397;44.552;-0.848;2023-10-13T01:21:55;17.30;99.90
42743;DHT22;28397;44.552;-0.848;2023-10-13T01:24:29;17.20;99.90
42743;DHT22;28397;44.552;-0.848;2023-10-13T01:27:09;17.10;99.90
42743;DHT22;28397;44.552;-0.848;2023-10-13T01:29:48;17.10;99.90
42743;DHT22;28397;44.552;-0.848;2023-10-13T01:32:18;17.10;99.90
42743;DHT22;28397;44.552;-0.848;2023-10-13T01:34:44;17.00;99.90
42743;DHT22;28397;44.552;-0.848;2023-10-13T01:37:13;17.00;99.90
42743;DHT22;28397;44.552;-0.848;2023-10-13T01:39:41;17.00;99.90
42743;DHT22;28397;44.552;-0.848;2023-10-13T01:42:07;16.90;99.90
42743;DHT22;28397;44.552;-0.848;2023-10-13T01:44:33;16.90;99.90
42743;DHT22;28397;44.552;-0.848;2023-10-13T01:46:59;16.90;99.90
42743;DHT22;28397;44.552;-0.848;2023-10-13T01:49:32;16.90;99.90
42743;DHT22;28397;44.552;-0.848;2023-10-13T01:52:06;16.80;99.90
42743;DHT22;28397;44.552;-0.848;2023-10-13T01:54:33;16.80;99.90
42743;DHT22;28397;44.552;-0.848;2023-10-13T01:56:59;16.80;99.90
42743;DHT22;28397;44.552;-0.848;2023-10-13T01:59:25;16.70;99.90
42743;DHT22;28397;44.552;-0.848;2023-10-13T02:01:52;16.70;99.90
42743;DHT22;28397;44.552;-0.848;2023-10-13T02:04:21;16.70;99.90
42743;DHT22;28397;44.552;-0.848;2023-10-13T02:06:47;16.70;99.90
42743;DHT22;28397;44.552;-0.848;2023-10-13T02:09:13;16.60;99.90
42743;DHT22;28397;44.552;-0.848;2023-10-13T02:11:44;16.60;99.90
42743;DHT22;28397;44.552;-0.848;2023-10-13T02:14:12;16.80;99.90
42743;DHT22;28397;44.552;-0.848;2023-10-13T02:16:41;17.00;99.90
42743;DHT22;28397;44.552;-0.848;2023-10-13T02:19:07;17.10;99.90
42743;DHT22;28397;44.552;-0.848;2023-10-13T02:21:34;17.10;99.90
42743;DHT22;28397;44.552;-0.848;2023-10-13T02:24:07;17.20;99.90
42743;DHT22;28397;44.552;-0.848;2023-10-13T02:26:40;17.20;99.90
42743;DHT22;28397;44.552;-0.848;2023-10-13T02:29:05;17.20;99.90
42743;DHT22;28397;44.552;-0.848;2023-10-13T02:31:39;17.20;99.90
42743;DHT22;28397;44.552;-0.848;2023-10-13T02:34:05;17.30;99.90
42743;DHT22;28397;44.552;-0.848;2023-10-13T02:36:35;17.20;99.90
42743;DHT22;28397;44.552;-0.848;2023-10-13T02:39:15;17.20;99.90
42743;DHT22;28397;44.552;-0.848;2023-10-13T02:41:50;17.20;99.90
42743;DHT22;28397;44.552;-0.848;2023-10-13T02:44:16;17.20;99.90
42743;DHT22;28397;44.552;-0.848;2023-10-13T02:47:05;17.10;99.90
42743;DHT22;28397;44.552;-0.848;2023-10-13T02:49:39;17.00;99.90
42743;DHT22;28397;44.552;-0.848;2023-10-13T02:52:08;16.70;99.90
42743;DHT22;28397;44.552;-0.848;2023-10-13T02:54:38;16.70;99.90
42743;DHT22;28397;44.552;-0.848;2023-10-13T02:57:12;16.50;99.90
42743;DHT22;28397;44.552;-0.848;2023-10-13T02:59:38;16.30;99.90
42743;DHT22;28397;44.552;-0.848;2023-10-13T03:02:12;16.40;99.90
42743;DHT22;28397;44.552;-0.848;2023-10-13T03:04:57;16.30;99.90
42743;DHT22;28397;44.552;-0.848;2023-10-13T03:07:35;16.30;99.90
42743;DHT22;28397;44.552;-0.848;2023-10-13T03:10:02;16.20;99.90
42743;DHT22;28397;44.552;-0.848;2023-10-13T03:12:44;16.10;99.90
42743;DHT22;28397;44.552;-0.848;2023-10-13T03:15:14;16.10;99.90
42743;DHT22;28397;44.552;-0.848;2023-10-13T03:17:43;16.10;99.90
42743;DHT22;28397;44.552;-0.848;2023-10-13T03:20:10;16.00;99.90
42743;DHT22;28397;44.552;-0.848;2023-10-13T03:22:41;16.00;99.90
42743;DHT22;28397;44.552;-0.848;2023-10-13T03:25:10;15.90;99.90
42743;DHT22;28397;44.552;-0.848;2023-10-13T03:27:43;15.90;99.90
42743;DHT22;28397;44.552;-0.848;2023-10-13T03:30:18;16.00;99.90
42743;DHT22;28397;44.552;-0.848;2023-10-13T03:32:46;15.90;99.90
42743;DHT22;28397;44.552;-0.848;2023-10-13T03:35:12;15.90;99.90
42743;DHT22;28397;44.552;-0.848;2023-10-13T03:37:53;15.90;99.90
42743;DHT22;28397;44.552;-0.848;2023-10-13T03:40:20;15.80;99.90
42743;DHT22;28397;44.552;-0.848;2023-10-13T03:42:54;15.80;99.90
42743;DHT22;28397;44.552;-0.848;2023-10-13T03:45:42;15.80;99.90
42743;DHT22;28397;44.552;-0.848;2023-10-13T03:48:13;15.80;99.90
42743;DHT22;28397;44.552;-0.848;2023-10-13T03:50:55;15.90;99.90
42743;DHT22;28397;44.552;-0.848;2023-10-13T03:53:35;16.20;99.90
42743;DHT22;28397;44.552;-0.848;2023-10-13T03:56:06;16.30;99.90
42743;DHT22;28397;44.552;-0.848;2023-10-13T03:58:49;16.40;99.90
42743;DHT22;28397;44.552;-0.848;2023-10-13T04:01:15;16.50;99.90
42743;DHT22;28397;44.552;-0.848;2023-10-13T04:03:42;16.50;99.90
42743;DHT22;28397;44.552;-0.848;2023-10-13T04:06:28;16.50;99.90
42743;DHT22;28397;44.552;-0.848;2023-10-13T04:09:16;16.50;99.90
42743;DHT22;28397;44.552;-0.848;2023-10-13T04:12:09;16.40;99.90
42743;DHT22;28397;44.552;-0.848;2023-10-13T04:14:40;16.40;99.90
42743;DHT22;28397;44.552;-0.848;2023-10-13T04:17:06;16.40;99.90
42743;DHT22;28397;44.552;-0.848;2023-10-13T04:19:39;16.40;99.90
42743;DHT22;28397;44.552;-0.848;2023-10-13T04:22:25;16.50;99.90
42743;DHT22;28397;44.552;-0.848;2023-10-13T04:25:22;16.30;99.90
42743;DHT22;28397;44.552;-0.848;2023-10-13T04:28:14;16.00;99.90
42743;DHT22;28397;44.552;-0.848;2023-10-13T04:30:44;15.90;99.90
42743;DHT22;28397;44.552;-0.848;2023-10-13T04:36:10;15.80;99.90
42743;DHT22;28397;44.552;-0.848;2023-10-13T04:38:50;15.70;99.90
42743;DHT22;28397;44.552;-0.848;2023-10-13T04:41:27;15.70;99.90
42743;DHT22;28397;44.552;-0.848;2023-10-13T04:44:05;15.60;99.90
42743;DHT22;28397;44.552;-0.848;2023-10-13T04:46:52;15.60;99.90
42743;DHT22;28397;44.552;-0.848;2023-10-13T04:49:21;15.60;99.90
42743;DHT22;28397;44.552;-0.848;2023-10-13T04:52:05;15.60;99.90
42743;DHT22;28397;44.552;-0.848;2023-10-13T04:54:36;15.60;99.90
42743;DHT22;28397;44.552;-0.848;2023-10-13T04:57:16;15.60;99.90
42743;DHT22;28397;44.552;-0.848;2023-10-13T04:59:46;15.60;99.90
42743;DHT22;28397;44.552;-0.848;2023-10-13T05:02:31;15.50;99.90
42743;DHT22;28397;44.552;-0.848;2023-10-13T05:05:08;15.60;99.90
42743;DHT22;28397;44.552;-0.848;2023-10-13T05:07:45;15.60;99.90
42743;DHT22;28397;44.552;-0.848;2023-10-13T05:10:30;15.60;99.90
42743;DHT22;28397;44.552;-0.848;2023-10-13T05:13:14;15.60;99.90
42743;DHT22;28397;44.552;-0.848;2023-10-13T05:15:59;15.60;99.90
42743;DHT22;28397;44.552;-0.848;2023-10-13T05:18:43;15.60;99.90
42743;DHT22;28397;44.552;-0.848;2023-10-13T05:21:28;15.50;99.90
42743;DHT22;28397;44.552;-0.848;2023-10-13T05:24:12;15.50;99.90
42743;DHT22;28397;44.552;-0.848;2023-10-13T05:26:56;15.50;99.90
42743;DHT22;28397;44.552;-0.848;2023-10-13T05:29:45;15.60;99.90
42743;DHT22;28397;44.552;-0.848;2023-10-13T05:32:30;15.80;99.90
42743;DHT22;28397;44.552;-0.848;2023-10-13T05:35:15;15.90;99.90
42743;DHT22;28397;44.552;-0.848;2023-10-13T05:38:00;16.00;99.90
42743;DHT22;28397;44.552;-0.848;2023-10-13T05:40:55;16.10;99.90
42743;DHT22;28397;44.552;-0.848;2023-10-13T05:43:40;16.10;99.90
42743;DHT22;28397;44.552;-0.848;2023-10-13T05:46:24;16.20;99.90
42743;DHT22;28397;44.552;-0.848;2023-10-13T05:48:55;16.10;99.90
42743;DHT22;28397;44.552;-0.848;2023-10-13T05:51:28;16.10;99.90
42743;DHT22;28397;44.552;-0.848;2023-10-13T05:54:13;16.10;99.90
42743;DHT22;28397;44.552;-0.848;2023-10-13T05:56:49;16.10;99.90
42743;DHT22;28397;44.552;-0.848;2023-10-13T05:59:38;16.20;99.90
42743;DHT22;28397;44.552;-0.848;2023-10-13T06:02:23;16.10;99.90
42743;DHT22;28397;44.552;-0.848;2023-10-13T06:05:09;16.10;99.90
42743;DHT22;28397;44.552;-0.848;2023-10-13T06:07:54;15.90;99.90
42743;DHT22;28397;44.552;-0.848;2023-10-13T06:10:39;15.80;99.90
42743;DHT22;28397;44.552;-0.848;2023-10-13T06:13:23;15.70;99.90
42743;DHT22;28397;44.552;-0.848;2023-10-13T06:16:09;15.70;99.90
42743;DHT22;28397;44.552;-0.848;2023-10-13T06:18:53;15.60;99.90
42743;DHT22;28397;44.552;-0.848;2023-10-13T06:21:37;15.60;99.90
42743;DHT22;28397;44.552;-0.848;2023-10-13T06:24:22;15.60;99.90
42743;DHT22;28397;44.552;-0.848;2023-10-13T06:27:06;15.60;99.90
42743;DHT22;28397;44.552;-0.848;2023-10-13T06:29:50;15.60;99.90
42743;DHT22;28397;44.552;-0.848;2023-10-13T06:32:22;15.60;99.90
42743;DHT22;28397;44.552;-0.848;2023-10-13T06:34:55;15.70;99.90
42743;DHT22;28397;44.552;-0.848;2023-10-13T06:37:27;15.70;99.90
42743;DHT22;28397;44.552;-0.848;2023-10-13T06:39:57;15.70;99.90
42743;DHT22;28397;44.552;-0.848;2023-10-13T06:42:35;15.60;99.90
42743;DHT22;28397;44.552;-0.848;2023-10-13T06:45:08;15.60;99.90
42743;DHT22;28397;44.552;-0.848;2023-10-13T06:47:37;15.60;99.90
42743;DHT22;28397;44.552;-0.848;2023-10-13T06:50:11;15.60;99.90
42743;DHT22;28397;44.552;-0.848;2023-10-13T06:52:45;15.60;99.90
42743;DHT22;28397;44.552;-0.848;2023-10-13T06:55:15;15.60;99.90
42743;DHT22;28397;44.552;-0.848;2023-10-13T06:57:49;15.60;99.90
42743;DHT22;28397;44.552;-0.848;2023-10-13T07:00:17;15.60;99.90
42743;DHT22;28397;44.552;-0.848;2023-10-13T07:02:53;15.70;99.90
42743;DHT22;28397;44.552;-0.848;2023-10-13T07:05:19;15.70;99.90
42743;DHT22;28397;44.552;-0.848;2023-10-13T07:07:45;15.80;99.90
42743;DHT22;28397;44.552;-0.848;2023-10-13T07:10:13;16.00;99.90
42743;DHT22;28397;44.552;-0.848;2023-10-13T07:12:39;16.10;99.90
42743;DHT22;28397;44.552;-0.848;2023-10-13T07:15:15;16.30;99.90
42743;DHT22;28397;44.552;-0.848;2023-10-13T07:17:43;16.50;99.90
42743;DHT22;28397;44.552;-0.848;2023-10-13T07:20:10;16.50;99.90
42743;DHT22;28397;44.552;-0.848;2023-10-13T07:22:50;16.60;99.90
42743;DHT22;28397;44.552;-0.848;2023-10-13T07:25:32;16.60;99.90
42743;DHT22;28397;44.552;-0.848;2023-10-13T07:27:59;16.60;99.90
42743;DHT22;28397;44.552;-0.848;2023-10-13T07:30:26;16.80;99.90
42743;DHT22;28397;44.552;-0.848;2023-10-13T07:32:53;16.90;99.90
42743;DHT22;28397;44.552;-0.848;2023-10-13T07:35:23;17.00;99.90
42743;DHT22;28397;44.552;-0.848;2023-10-13T07:37:52;17.10;99.90
42743;DHT22;28397;44.552;-0.848;2023-10-13T07:40:21;17.00;99.90
42743;DHT22;28397;44.552;-0.848;2023-10-13T07:42:50;17.00;99.90
42743;DHT22;28397;44.552;-0.848;2023-10-13T07:45:16;16.80;99.90
42743;DHT22;28397;44.552;-0.848;2023-10-13T07:47:53;16.80;99.90
42743;DHT22;28397;44.552;-0.848;2023-10-13T07:50:18;16.90;99.90
42743;DHT22;28397;44.552;-0.848;2023-10-13T07:52:51;16.90;99.90
42743;DHT22;28397;44.552;-0.848;2023-10-13T07:55:49;16.90;99.90
42743;DHT22;28397;44.552;-0.848;2023-10-13T07:58:22;17.10;99.90
42743;DHT22;28397;44.552;-0.848;2023-10-13T08:00:54;17.00;99.90
42743;DHT22;28397;44.552;-0.848;2023-10-13T08:03:35;17.10;99.90
42743;DHT22;28397;44.552;-0.848;2023-10-13T08:06:10;17.10;99.90
42743;DHT22;28397;44.552;-0.848;2023-10-13T08:08:36;17.10;99.90
42743;DHT22;28397;44.552;-0.848;2023-10-13T08:11:08;17.20;99.90
42743;DHT22;28397;44.552;-0.848;2023-10-13T08:13:50;17.40;99.90
42743;DHT22;28397;44.552;-0.848;2023-10-13T08:16:23;17.60;99.90
42743;DHT22;28397;44.552;-0.848;2023-10-13T08:18:49;17.70;99.90
42743;DHT22;28397;44.552;-0.848;2023-10-13T08:21:16;17.70;99.90
42743;DHT22;28397;44.552;-0.848;2023-10-13T08:23:43;17.80;99.90
42743;DHT22;28397;44.552;-0.848;2023-10-13T08:26:26;17.90;99.90
42743;DHT22;28397;44.552;-0.848;2023-10-13T08:29:03;18.00;99.90
42743;DHT22;28397;44.552;-0.848;2023-10-13T08:31:51;18.20;99.90
42743;DHT22;28397;44.552;-0.848;2023-10-13T08:34:33;18.30;99.90
42743;DHT22;28397;44.552;-0.848;2023-10-13T08:37:30;18.40;99.90
42743;DHT22;28397;44.552;-0.848;2023-10-13T08:40:17;18.50;99.90
42743;DHT22;28397;44.552;-0.848;2023-10-13T08:42:50;18.70;99.90
42743;DHT22;28397;44.552;-0.848;2023-10-13T08:45:38;18.80;99.90
42743;DHT22;28397;44.552;-0.848;2023-10-13T08:48:05;19.00;99.90
42743;DHT22;28397;44.552;-0.848;2023-10-13T08:50:38;19.20;99.90
42743;DHT22;28397;44.552;-0.848;2023-10-13T08:53:23;19.40;99.90
42743;DHT22;28397;44.552;-0.848;2023-10-13T08:56:03;19.60;99.90
42743;DHT22;28397;44.552;-0.848;2023-10-13T08:59:01;19.80;99.90
42743;DHT22;28397;44.552;-0.848;2023-10-13T09:01:33;19.90;99.90
42743;DHT22;28397;44.552;-0.848;2023-10-13T09:04:18;20.00;99.90
42743;DHT22;28397;44.552;-0.848;2023-10-13T09:06:46;20.10;99.90
42743;DHT22;28397;44.552;-0.848;2023-10-13T09:09:32;20.20;99.90
42743;DHT22;28397;44.552;-0.848;2023-10-13T09:12:21;20.30;99.90
42743;DHT22;28397;44.552;-0.848;2023-10-13T09:15:02;20.40;99.90
42743;DHT22;28397;44.552;-0.848;2023-10-13T09:17:39;20.40;99.90
42743;DHT22;28397;44.552;-0.848;2023-10-13T09:20:08;20.50;99.90
42743;DHT22;28397;44.552;-0.848;2023-10-13T09:22:55;20.70;99.90
42743;DHT22;28397;44.552;-0.848;2023-10-13T09:27:59;20.70;99.90
42743;DHT22;28397;44.552;-0.848;2023-10-13T09:30:26;20.90;99.90
42743;DHT22;28397;44.552;-0.848;2023-10-13T09:33:04;20.90;99.90
42743;DHT22;28397;44.552;-0.848;2023-10-13T09:35:31;21.00;99.90
42743;DHT22;28397;44.552;-0.848;2023-10-13T09:38:00;21.20;99.90
42743;DHT22;28397;44.552;-0.848;2023-10-13T09:40:30;21.20;99.90
42743;DHT22;28397;44.552;-0.848;2023-10-13T09:43:03;21.30;99.90
42743;DHT22;28397;44.552;-0.848;2023-10-13T09:45:34;21.30;99.90
42743;DHT22;28397;44.552;-0.848;2023-10-13T09:48:10;21.30;99.90
42743;DHT22;28397;44.552;-0.848;2023-10-13T09:50:43;21.40;99.90
42743;DHT22;28397;44.552;-0.848;2023-10-13T09:53:11;21.40;99.90
42743;DHT22;28397;44.552;-0.848;2023-10-13T09:55:45;21.50;99.90
42743;DHT22;28397;44.552;-0.848;2023-10-13T09:58:12;21.50;99.90
42743;DHT22;28397;44.552;-0.848;2023-10-13T10:00:53;21.70;99.90
42743;DHT22;28397;44.552;-0.848;2023-10-13T10:03:44;21.90;99.90
42743;DHT22;28397;44.552;-0.848;2023-10-13T10:06:22;22.20;99.90
42743;DHT22;28397;44.552;-0.848;2023-10-13T10:09:04;22.30;99.90
42743;DHT22;28397;44.552;-0.848;2023-10-13T10:17:13;22.60;99.90
42743;DHT22;28397;44.552;-0.848;2023-10-13T10:19:52;22.60;99.90
42743;DHT22;28397;44.552;-0.848;2023-10-13T10:22:26;22.90;99.90
42743;DHT22;28397;44.552;-0.848;2023-10-13T10:25:10;23.00;99.90
42743;DHT22;28397;44.552;-0.848;2023-10-13T10:28:04;23.30;99.90
42743;DHT22;28397;44.552;-0.848;2023-10-13T10:30:32;23.50;99.90
42743;DHT22;28397;44.552;-0.848;2023-10-13T10:33:05;23.90;99.90
42743;DHT22;28397;44.552;-0.848;2023-10-13T10:36:00;24.20;99.90
42743;DHT22;28397;44.552;-0.848;2023-10-13T10:38:25;24.40;99.90
42743;DHT22;28397;44.552;-0.848;2023-10-13T10:41:02;24.40;99.90
42743;DHT22;28397;44.552;-0.848;2023-10-13T10:43:36;24.50;99.90
42743;DHT22;28397;44.552;-0.848;2023-10-13T10:48:36;24.80;99.90
42743;DHT22;28397;44.552;-0.848;2023-10-13T10:51:03;25.00;99.90
42743;DHT22;28397;44.552;-0.848;2023-10-13T10:53:34;25.10;99.90
42743;DHT22;28397;44.552;-0.848;2023-10-13T10:56:10;25.20;99.90
42743;DHT22;28397;44.552;-0.848;2023-10-13T10:58:55;25.30;99.90
42743;DHT22;28397;44.552;-0.848;2023-10-13T11:01:25;25.00;99.90
42743;DHT22;28397;44.552;-0.848;2023-10-13T11:04:00;24.90;99.90
42743;DHT22;28397;44.552;-0.848;2023-10-13T11:06:51;25.20;99.90
42743;DHT22;28397;44.552;-0.848;2023-10-13T11:09:33;25.30;99.90
42743;DHT22;28397;44.552;-0.848;2023-10-13T11:12:14;25.70;99.90
42743;DHT22;28397;44.552;-0.848;2023-10-13T11:14:44;25.60;99.90
42743;DHT22;28397;44.552;-0.848;2023-10-13T11:17:23;25.60;99.90
42743;DHT22;28397;44.552;-0.848;2023-10-13T11:20:08;25.70;99.90
42743;DHT22;28397;44.552;-0.848;2023-10-13T11:22:42;25.60;99.90
42743;DHT22;28397;44.552;-0.848;2023-10-13T11:25:21;25.70;99.90
42743;DHT22;28397;44.552;-0.848;2023-10-13T11:27:55;26.00;99.90
42743;DHT22;28397;44.552;-0.848;2023-10-13T11:30:22;26.00;99.90
42743;DHT22;28397;44.552;-0.848;2023-10-13T11:35:40;25.70;99.90
42743;DHT22;28397;44.552;-0.848;2023-10-13T11:38:28;25.70;99.90
42743;DHT22;28397;44.552;-0.848;2023-10-13T11:41:14;25.60;99.90
42743;DHT22;28397;44.552;-0.848;2023-10-13T11:43:44;25.30;99.90
42743;DHT22;28397;44.552;-0.848;2023-10-13T11:46:19;25.10;99.90
42743;DHT22;28397;44.552;-0.848;2023-10-13T11:49:03;24.90;99.90
42743;DHT22;28397;44.552;-0.848;2023-10-13T11:51:52;24.80;99.90
42743;DHT22;28397;44.552;-0.848;2023-10-13T11:54:27;24.80;99.90
42743;DHT22;28397;44.552;-0.848;2023-10-13T11:56:53;24.80;99.90
42743;DHT22;28397;44.552;-0.848;2023-10-13T11:59:23;24.80;99.90
42743;DHT22;28397;44.552;-0.848;2023-10-13T12:01:52;24.80;99.90
42743;DHT22;28397;44.552;-0.848;2023-10-13T12:04:37;24.70;99.90
42743;DHT22;28397;44.552;-0.848;2023-10-13T12:07:09;24.70;99.90
42743;DHT22;28397;44.552;-0.848;2023-10-13T12:09:49;24.60;99.90
42743;DHT22;28397;44.552;-0.848;2023-10-13T12:12:20;24.90;99.90
42743;DHT22;28397;44.552;-0.848;2023-10-13T12:14:46;25.00;99.90
42743;DHT22;28397;44.552;-0.848;2023-10-13T12:17:30;25.10;99.90
42743;DHT22;28397;44.552;-0.848;2023-10-13T12:20:06;25.20;99.90
42743;DHT22;28397;44.552;-0.848;2023-10-13T12:22:36;25.10;99.90
42743;DHT22;28397;44.552;-0.848;2023-10-13T12:25:10;25.20;99.90
42743;DHT22;28397;44.552;-0.848;2023-10-13T12:28:05;25.20;99.90
42743;DHT22;28397;44.552;-0.848;2023-10-13T12:30:49;25.30;99.90
42743;DHT22;28397;44.552;-0.848;2023-10-13T12:33:15;25.40;99.90
42743;DHT22;28397;44.552;-0.848;2023-10-13T12:35:59;25.30;99.90
42743;DHT22;28397;44.552;-0.848;2023-10-13T12:38:56;25.40;99.90
42743;DHT22;28397;44.552;-0.848;2023-10-13T12:41:33;25.40;99.90
42743;DHT22;28397;44.552;-0.848;2023-10-13T12:44:17;25.50;99.90
42743;DHT22;28397;44.552;-0.848;2023-10-13T12:47:02;25.40;99.90
42743;DHT22;28397;44.552;-0.848;2023-10-13T12:49:46;25.40;99.90
42743;DHT22;28397;44.552;-0.848;2023-10-13T12:52:14;25.60;99.90
42743;DHT22;28397;44.552;-0.848;2023-10-13T12:54:51;25.50;99.90
42743;DHT22;28397;44.552;-0.848;2023-10-13T12:57:26;25.60;99.90
42743;DHT22;28397;44.552;-0.848;2023-10-13T12:59:53;25.50;99.90
42743;DHT22;28397;44.552;-0.848;2023-10-13T13:02:24;25.50;99.90
42743;DHT22;28397;44.552;-0.848;2023-10-13T13:04:56;25.60;99.90
42743;DHT22;28397;44.552;-0.848;2023-10-13T13:07:42;25.50;99.90
42743;DHT22;28397;44.552;-0.848;2023-10-13T13:10:18;25.40;99.90
42743;DHT22;28397;44.552;-0.848;2023-10-13T13:12:44;25.30;99.90
42743;DHT22;28397;44.552;-0.848;2023-10-13T13:15:10;25.20;99.90
42743;DHT22;28397;44.552;-0.848;2023-10-13T13:17:38;25.10;99.90
42743;DHT22;28397;44.552;-0.848;2023-10-13T13:20:08;25.10;99.90
42743;DHT22;28397;44.552;-0.848;2023-10-13T13:22:40;25.20;99.90
42743;DHT22;28397;44.552;-0.848;2023-10-13T13:25:06;25.20;99.90
42743;DHT22;28397;44.552;-0.848;2023-10-13T13:27:34;25.20;99.90
42743;DHT22;28397;44.552;-0.848;2023-10-13T13:30:00;25.20;99.90
42743;DHT22;28397;44.552;-0.848;2023-10-13T13:32:26;25.20;99.90
42743;DHT22;28397;44.552;-0.848;2023-10-13T13:34:54;25.10;99.90
42743;DHT22;28397;44.552;-0.848;2023-10-13T13:37:30;25.10;99.90
42743;DHT22;28397;44.552;-0.848;2023-10-13T13:39:56;25.10;99.90
42743;DHT22;28397;44.552;-0.848;2023-10-13T13:42:38;25.10;99.90
42743;DHT22;28397;44.552;-0.848;2023-10-13T13:45:11;25.40;99.90
42743;DHT22;28397;44.552;-0.848;2023-10-13T13:47:37;25.40;99.90
42743;DHT22;28397;44.552;-0.848;2023-10-13T13:50:02;25.80;99.90
42743;DHT22;28397;44.552;-0.848;2023-10-13T13:52:40;25.90;99.90
42743;DHT22;28397;44.552;-0.848;2023-10-13T13:55:11;26.10;99.90
42743;DHT22;28397;44.552;-0.848;2023-10-13T13:57:43;26.30;99.90
42743;DHT22;28397;44.552;-0.848;2023-10-13T14:00:11;26.40;99.90
42743;DHT22;28397;44.552;-0.848;2023-10-13T14:02:43;26.40;99.90
42743;DHT22;28397;44.552;-0.848;2023-10-13T14:05:16;26.40;99.90
42743;DHT22;28397;44.552;-0.848;2023-10-13T14:07:43;26.40;99.90
42743;DHT22;28397;44.552;-0.848;2023-10-13T14:10:18;26.70;99.90
42743;DHT22;28397;44.552;-0.848;2023-10-13T14:13:19;26.90;99.90
42743;DHT22;28397;44.552;-0.848;2023-10-13T14:15:48;26.80;99.90
42743;DHT22;28397;44.552;-0.848;2023-10-13T14:18:13;26.80;99.90
42743;DHT22;28397;44.552;-0.848;2023-10-13T14:20:42;26.60;99.90
42743;DHT22;28397;44.552;-0.848;2023-10-13T14:23:08;26.60;99.90
42743;DHT22;28397;44.552;-0.848;2023-10-13T14:25:38;26.40;99.90
42743;DHT22;28397;44.552;-0.848;2023-10-13T14:28:06;26.40;99.90
42743;DHT22;28397;44.552;-0.848;2023-10-13T14:30:33;26.30;99.90
42743;DHT22;28397;44.552;-0.848;2023-10-13T14:32:59;26.20;99.90
42743;DHT22;28397;44.552;-0.848;2023-10-13T14:35:25;26.10;99.90
42743;DHT22;28397;44.552;-0.848;2023-10-13T14:37:54;25.90;99.90
42743;DHT22;28397;44.552;-0.848;2023-10-13T14:40:20;25.80;99.90
42743;DHT22;28397;44.552;-0.848;2023-10-13T14:42:47;25.80;99.90
42743;DHT22;28397;44.552;-0.848;2023-10-13T14:45:14;25.70;99.90
42743;DHT22;28397;44.552;-0.848;2023-10-13T14:47:42;25.80;99.90
42743;DHT22;28397;44.552;-0.848;2023-10-13T14:50:08;26.20;99.90
42743;DHT22;28397;44.552;-0.848;2023-10-13T14:52:43;26.50;99.90
42743;DHT22;28397;44.552;-0.848;2023-10-13T14:55:09;26.40;99.90
42743;DHT22;28397;44.552;-0.848;2023-10-13T14:57:45;26.40;99.90
42743;DHT22;28397;44.552;-0.848;2023-10-13T15:00:12;26.50;99.90
42743;DHT22;28397;44.552;-0.848;2023-10-13T15:02:40;26.40;99.90
42743;DHT22;28397;44.552;-0.848;2023-10-13T15:05:10;26.30;99.90
42743;DHT22;28397;44.552;-0.848;2023-10-13T15:07:45;26.10;99.90
42743;DHT22;28397;44.552;-0.848;2023-10-13T15:10:15;25.70;99.90
42743;DHT22;28397;44.552;-0.848;2023-10-13T15:12:44;25.60;99.90
42743;DHT22;28397;44.552;-0.848;2023-10-13T15:15:14;25.40;99.90
42743;DHT22;28397;44.552;-0.848;2023-10-13T15:17:42;25.30;99.90
42743;DHT22;28397;44.552;-0.848;2023-10-13T15:20:08;25.20;99.90
42743;DHT22;28397;44.552;-0.848;2023-10-13T15:22:44;25.10;99.90
42743;DHT22;28397;44.552;-0.848;2023-10-13T15:25:10;25.10;99.90
42743;DHT22;28397;44.552;-0.848;2023-10-13T15:28:01;24.90;99.90
42743;DHT22;28397;44.552;-0.848;2023-10-13T15:30:33;24.80;99.90
42743;DHT22;28397;44.552;-0.848;2023-10-13T15:33:22;24.70;99.90
42743;DHT22;28397;44.552;-0.848;2023-10-13T15:35:48;24.60;99.90
42743;DHT22;28397;44.552;-0.848;2023-10-13T15:38:14;24.50;99.90
42743;DHT22;28397;44.552;-0.848;2023-10-13T15:40:43;24.60;99.90
42743;DHT22;28397;44.552;-0.848;2023-10-13T15:43:10;24.50;99.90
42743;DHT22;28397;44.552;-0.848;2023-10-13T15:45:36;24.50;99.90
42743;DHT22;28397;44.552;-0.848;2023-10-13T15:48:05;24.50;99.90
42743;DHT22;28397;44.552;-0.848;2023-10-13T15:50:37;24.40;99.90
42743;DHT22;28397;44.552;-0.848;2023-10-13T15:53:08;24.40;99.90
42743;DHT22;28397;44.552;-0.848;2023-10-13T15:55:37;24.60;99.90
42743;DHT22;28397;44.552;-0.848;2023-10-13T15:58:06;24.60;99.90
42743;DHT22;28397;44.552;-0.848;2023-10-13T16:00:38;24.50;99.90
42743;DHT22;28397;44.552;-0.848;2023-10-13T16:03:04;24.40;99.90
42743;DHT22;28397;44.552;-0.848;2023-10-13T16:05:37;24.60;99.90
42743;DHT22;28397;44.552;-0.848;2023-10-13T16:08:03;24.50;99.90
42743;DHT22;28397;44.552;-0.848;2023-10-13T16:10:32;24.40;99.90
42743;DHT22;28397;44.552;-0.848;2023-10-13T16:12:58;24.40;99.90
42743;DHT22;28397;44.552;-0.848;2023-10-13T16:15:24;24.30;99.90